Pryor, Colorado
Current Conditions -  °F | °C
As of 1:52 AM on Wednesday 22 Oct 2014 (Local Time) from KVTP Reporting Station
Scattered Clouds Scattered Clouds  
Wind Chill:   Ceiling: Unl
Heat Index:   Visibility: 10mi
Dew Point:   Wind: 10mph
Humidity: 87%   Direction: 200°SSW
Pressure: 30.25"   Gusts: 24mph
Location:  37.6936°N, 104.772°W
Report Text: KVTP 220752Z AUTO 20009G21KT 180V260 10SM SCT006 SCT010 SCT024 04/02 A3025 RMK AO2
Loading
Personal Weather Stations






























Interactive Weather Map
Tropical Storm Tracking
New forecast layout! Learn more

10-Day Weather Forecast

Advertisements
Track Severe Weather on mobile